Time;durP1;ratioP1;P1;durP2;ratioP2;P2;SDS_P1;SDS_P2;PMS_P1;PMS_P2;Temp;Humidity;BMP_temperature;BMP_pressure;BME280_temperature;BME280_humidity;BME280_pressure;Samples;Min_cycle;Max_cycle;Signal;HPM_P1;HPM_P2
2023/04/11 00:00:33;;;;;;;2.72;0.90;;;5.70;99.90;;;;;;5071869;28;20485;-70
2023/04/11 00:03:02;;;;;;;1.92;0.70;;;5.70;99.90;;;;;;5070471;28;20059;-69
2023/04/11 00:05:30;;;;;;;1.83;0.70;;;5.60;99.90;;;;;;5071757;28;20052;-70
2023/04/11 00:07:56;;;;;;;3.08;1.45;;;5.70;99.90;;;;;;5070469;28;20050;-71
2023/04/11 00:10:21;;;;;;;7.13;2.10;;;5.70;99.90;;;;;;5071775;28;20459;-70
2023/04/11 00:12:47;;;;;;;5.60;2.17;;;5.70;99.90;;;;;;5070011;28;20132;-70
2023/04/11 00:15:14;;;;;;;2.92;1.20;;;5.60;99.90;;;;;;5070236;28;20045;-71
2023/04/11 00:17:44;;;;;;;2.67;1.02;;;5.60;99.90;;;;;;5070481;28;20139;-72
2023/04/11 00:20:11;;;;;;;5.25;1.80;;;5.70;99.90;;;;;;5071419;28;20453;-71
2023/04/11 00:22:37;;;;;;;2.58;1.30;;;5.60;99.90;;;;;;5069980;28;20049;-71
2023/04/11 00:25:04;;;;;;;2.67;0.98;;;5.60;99.90;;;;;;5071595;28;20053;-71
2023/04/11 00:27:30;;;;;;;3.13;0.80;;;5.60;99.90;;;;;;5070300;28;20044;-72
2023/04/11 00:29:56;;;;;;;3.60;0.80;;;5.50;99.90;;;;;;5070155;28;20110;-71
2023/04/11 00:32:23;;;;;;;2.60;0.88;;;5.40;99.90;;;;;;5070021;28;20048;-70
2023/04/11 00:34:50;;;;;;;2.58;1.08;;;5.60;99.90;;;;;;5071452;28;20044;-72
2023/04/11 00:37:16;;;;;;;3.25;1.10;;;5.40;99.90;;;;;;5071365;28;20044;-72
2023/04/11 00:39:44;;;;;;;4.10;1.20;;;5.50;99.90;;;;;;5070148;28;20084;-71
2023/04/11 00:42:10;;;;;;;2.60;0.80;;;5.60;99.90;;;;;;5070184;28;20109;-71
2023/04/11 00:44:36;;;;;;;3.20;1.00;;;5.60;99.90;;;;;;5069821;28;20374;-71
2023/04/11 00:47:05;;;;;;;6.22;1.30;;;5.60;99.90;;;;;;5070129;28;20052;-71
2023/04/11 00:49:31;;;;;;;3.20;1.05;;;5.60;99.90;;;;;;5070383;28;20386;-71
2023/04/11 00:51:58;;;;;;;2.55;0.90;;;5.50;99.90;;;;;;5071099;28;20076;-72
2023/04/11 00:54:28;;;;;;;3.65;1.38;;;5.50;99.90;;;;;;5070989;28;20080;-72
2023/04/11 00:56:57;;;;;;;3.85;1.00;;;5.50;99.90;;;;;;5070185;28;20048;-73
2023/04/11 00:59:23;;;;;;;3.47;1.00;;;5.50;99.90;;;;;;5071329;28;20107;-72
2023/04/11 01:01:48;;;;;;;3.55;0.90;;;5.50;99.90;;;;;;5069951;28;20400;-71
2023/04/11 01:04:16;;;;;;;2.50;1.73;;;5.50;99.90;;;;;;5071165;28;20048;-71
2023/04/11 01:06:45;;;;;;;2.45;1.00;;;5.50;99.90;;;;;;5070015;28;20401;-71
2023/04/11 01:09:11;;;;;;;1.92;0.82;;;5.60;99.90;;;;;;5071680;28;20141;-71
2023/04/11 01:11:37;;;;;;;2.60;0.88;;;5.70;99.90;;;;;;5072132;28;20051;-71
2023/04/11 01:14:04;;;;;;;2.50;1.05;;;5.60;99.90;;;;;;5070987;28;20121;-71
2023/04/11 01:16:29;;;;;;;2.42;1.15;;;5.70;99.90;;;;;;5071228;28;20063;-71
2023/04/11 01:18:55;;;;;;;4.65;1.17;;;5.60;99.90;;;;;;5053436;28;20048;-73
2023/04/11 01:21:23;;;;;;;4.88;1.20;;;5.70;99.90;;;;;;5070017;28;20390;-72
2023/04/11 01:23:51;;;;;;;3.92;1.30;;;5.60;99.90;;;;;;5071061;28;20114;-72
2023/04/11 01:26:17;;;;;;;3.38;1.40;;;5.60;99.90;;;;;;5069866;28;20393;-71
2023/04/11 01:28:43;;;;;;;4.55;1.73;;;5.60;99.90;;;;;;5070767;28;20048;-73
2023/04/11 01:31:08;;;;;;;3.38;1.63;;;5.60;99.90;;;;;;5070913;28;20059;-71
2023/04/11 01:33:34;;;;;;;3.40;1.60;;;5.60;99.90;;;;;;5074218;28;20049;-72
2023/04/11 01:36:00;;;;;;;4.82;1.75;;;5.60;99.90;;;;;;5056821;28;20075;-71
2023/04/11 01:38:26;;;;;;;4.82;2.03;;;5.60;99.90;;;;;;5074696;28;20111;-73
2023/04/11 01:40:52;;;;;;;3.47;1.60;;;5.70;99.90;;;;;;5074672;28;20131;-71
2023/04/11 01:43:18;;;;;;;4.65;2.28;;;5.70;99.90;;;;;;5072931;28;20055;-71
2023/04/11 01:45:44;;;;;;;5.47;1.67;;;5.70;99.90;;;;;;5073517;28;20461;-71
2023/04/11 01:48:10;;;;;;;6.82;1.88;;;5.70;99.90;;;;;;5074513;28;20064;-72
2023/04/11 01:50:36;;;;;;;3.67;1.77;;;5.80;99.90;;;;;;5073162;28;20048;-71
2023/04/11 01:53:03;;;;;;;6.03;1.60;;;5.90;99.90;;;;;;5072999;28;20474;-71
2023/04/11 01:55:30;;;;;;;6.20;2.00;;;5.90;99.90;;;;;;5074500;28;20437;-72
2023/04/11 01:57:55;;;;;;;7.47;3.00;;;5.90;99.90;;;;;;5056403;28;20482;-72
2023/04/11 02:00:21;;;;;;;5.30;1.90;;;5.90;99.90;;;;;;5073304;28;20059;-73
2023/04/11 02:02:47;;;;;;;3.45;1.90;;;5.90;99.90;;;;;;5056337;28;20595;-71
2023/04/11 02:05:12;;;;;;;5.88;1.70;;;5.90;99.90;;;;;;5074206;28;20048;-73
2023/04/11 02:07:38;;;;;;;4.57;2.20;;;5.90;99.90;;;;;;5072967;28;20048;-72
2023/04/11 02:10:04;;;;;;;6.88;1.92;;;5.90;99.90;;;;;;5072560;28;20048;-72
2023/04/11 02:12:30;;;;;;;7.82;1.88;;;6.00;99.90;;;;;;5073979;28;20040;-76
2023/04/11 02:14:56;;;;;;;5.45;2.35;;;5.90;99.90;;;;;;5073821;28;20398;-72
2023/04/11 02:17:24;;;;;;;6.35;1.98;;;6.00;99.90;;;;;;5072930;28;20060;-72
2023/04/11 02:19:50;;;;;;;4.15;1.88;;;6.00;99.90;;;;;;5074026;28;20428;-73
2023/04/11 02:22:16;;;;;;;6.05;2.30;;;6.00;99.90;;;;;;5073823;28;20045;-72
2023/04/11 02:24:42;;;;;;;3.85;2.10;;;6.00;99.90;;;;;;5072406;28;20041;-72
2023/04/11 02:27:09;;;;;;;4.70;2.40;;;6.00;99.90;;;;;;5056006;28;20060;-72
2023/04/11 02:29:35;;;;;;;6.53;2.10;;;6.00;99.90;;;;;;5072403;28;20057;-73
2023/04/11 02:32:01;;;;;;;4.15;2.42;;;6.00;99.90;;;;;;5073571;28;20075;-72
2023/04/11 02:34:27;;;;;;;7.25;2.25;;;6.00;99.90;;;;;;5073723;28;20044;-71
2023/04/11 02:36:52;;;;;;;6.38;2.58;;;6.10;99.90;;;;;;5073635;28;20371;-72
2023/04/11 02:39:22;;;;;;;6.82;3.53;;;6.10;99.90;;;;;;5055739;28;20044;-72
2023/04/11 02:41:48;;;;;;;8.15;2.83;;;6.20;99.90;;;;;;5072387;28;20099;-73
2023/04/11 02:44:14;;;;;;;7.35;2.40;;;6.20;99.90;;;;;;5054149;28;20087;-72
2023/04/11 02:46:40;;;;;;;5.90;2.60;;;6.20;99.90;;;;;;5072287;28;20044;-73
2023/04/11 02:49:05;;;;;;;9.98;3.55;;;6.30;99.90;;;;;;5071896;28;20503;-73
2023/04/11 02:51:32;;;;;;;9.77;3.35;;;6.30;99.90;;;;;;5055643;28;20471;-72
2023/04/11 02:53:58;;;;;;;7.57;2.88;;;6.20;99.90;;;;;;5055460;28;20059;-73
2023/04/11 02:56:23;;;;;;;9.88;3.25;;;6.20;99.90;;;;;;5073371;28;20048;-74
2023/04/11 02:58:51;;;;;;;10.32;2.72;;;6.20;99.90;;;;;;5072162;28;20106;-74
2023/04/11 03:01:20;;;;;;;8.77;2.70;;;6.20;99.90;;;;;;5072050;28;20401;-71
2023/04/11 03:03:46;;;;;;;5.30;2.47;;;6.20;99.90;;;;;;5071800;28;20109;-73
2023/04/11 03:06:11;;;;;;;6.65;2.50;;;6.10;99.90;;;;;;5073106;28;20485;-72
2023/04/11 03:08:38;;;;;;;7.60;3.05;;;6.10;99.90;;;;;;5055121;28;20051;-72
2023/04/11 03:11:05;;;;;;;7.40;2.28;;;6.10;99.90;;;;;;5072981;28;20706;-72
2023/04/11 03:13:31;;;;;;;6.32;2.50;;;6.10;99.90;;;;;;5072574;28;20053;-72
2023/04/11 03:15:56;;;;;;;7.25;2.50;;;6.20;99.90;;;;;;5054875;28;20041;-72
2023/04/11 03:18:23;;;;;;;8.27;2.17;;;6.10;99.90;;;;;;5072704;28;20500;-71
2023/04/11 03:20:50;;;;;;;6.93;2.67;;;6.10;99.90;;;;;;5072845;28;20520;-73
2023/04/11 03:23:15;;;;;;;6.82;2.70;;;6.10;99.90;;;;;;5055159;28;20052;-72
2023/04/11 03:25:43;;;;;;;7.15;2.90;;;6.10;99.90;;;;;;5071697;28;20053;-72
2023/04/11 03:28:09;;;;;;;12.00;4.35;;;6.10;99.90;;;;;;5072579;28;20052;-73
2023/04/11 03:30:39;;;;;;;7.72;2.38;;;6.10;99.90;;;;;;5070526;28;20105;-72
2023/04/11 03:33:05;;;;;;;8.23;2.45;;;6.10;99.90;;;;;;5072519;28;20055;-73
2023/04/11 03:35:31;;;;;;;4.70;2.45;;;6.20;99.90;;;;;;5071259;28;20095;-72
2023/04/11 03:37:56;;;;;;;6.05;2.30;;;6.20;99.90;;;;;;5071343;28;20144;-73
2023/04/11 03:40:23;;;;;;;6.00;2.47;;;6.30;99.90;;;;;;5072482;28;20048;-73
2023/04/11 03:42:49;;;;;;;7.78;2.65;;;6.40;99.90;;;;;;5071853;28;20071;-73
2023/04/11 03:45:15;;;;;;;5.55;2.28;;;6.40;99.90;;;;;;5071277;28;20105;-73
2023/04/11 03:47:40;;;;;;;7.60;2.80;;;6.40;99.90;;;;;;5070861;28;20123;-73
2023/04/11 03:50:07;;;;;;;7.32;2.10;;;6.50;99.90;;;;;;5054368;28;20604;-72
2023/04/11 03:52:33;;;;;;;8.02;2.50;;;6.60;99.90;;;;;;5072188;28;20202;-72
2023/04/11 03:54:59;;;;;;;8.13;2.88;;;6.60;99.90;;;;;;5071939;28;20060;-72
2023/04/11 03:57:28;;;;;;;5.57;2.28;;;6.60;99.90;;;;;;5054514;28;20571;-73
2023/04/11 03:59:54;;;;;;;5.45;2.40;;;6.60;99.90;;;;;;5071810;28;20048;-73
2023/04/11 04:02:20;;;;;;;7.65;2.97;;;6.70;99.90;;;;;;5072004;28;20101;-72
2023/04/11 04:04:53;;;;;;;6.20;2.47;;;6.70;99.90;;;;;;5070910;28;20124;-73
2023/04/11 04:07:26;;;;;;;3.97;2.17;;;6.70;99.90;;;;;;5070695;28;20059;-73
2023/04/11 04:09:52;;;;;;;9.63;2.60;;;6.80;99.90;;;;;;5070749;28;20079;-73
2023/04/11 04:12:20;;;;;;;3.83;1.75;;;6.80;99.90;;;;;;5070204;28;20551;-73
2023/04/11 04:14:46;;;;;;;5.88;2.13;;;6.80;99.90;;;;;;5071345;28;20067;-73
2023/04/11 04:17:14;;;;;;;5.63;2.30;;;6.80;99.90;;;;;;5071732;28;20053;-73
2023/04/11 04:19:40;;;;;;;6.47;1.98;;;6.80;99.90;;;;;;5070685;28;20057;-73
2023/04/11 04:22:10;;;;;;;6.88;1.67;;;6.90;99.90;;;;;;5070715;28;20048;-73
2023/04/11 04:24:44;;;;;;;5.65;1.75;;;6.90;99.90;;;;;;5070020;28;20055;-73
2023/04/11 04:27:12;;;;;;;9.77;2.72;;;7.00;99.90;;;;;;5071393;28;20051;-72
2023/04/11 04:29:45;;;;;;;4.78;1.63;;;7.00;99.90;;;;;;5071209;28;20068;-73
2023/04/11 04:32:19;;;;;;;5.43;1.70;;;7.00;99.90;;;;;;5070448;28;20187;-73
2023/04/11 04:34:48;;;;;;;5.35;1.70;;;7.00;99.90;;;;;;5071628;28;20040;-73
2023/04/11 04:37:20;;;;;;;5.63;1.45;;;7.00;99.90;;;;;;5071512;28;20056;-73
2023/04/11 04:40:00;;;;;;;9.13;2.00;;;7.00;99.90;;;;;;5070204;28;20513;-73
2023/04/11 04:42:28;;;;;;;6.95;1.60;;;7.00;99.90;;;;;;5071587;28;20044;-73
2023/04/11 04:44:56;;;;;;;4.82;1.70;;;7.00;99.90;;;;;;5070989;28;20078;-73
2023/04/11 04:47:24;;;;;;;5.20;1.67;;;7.00;99.90;;;;;;5070124;28;20051;-72
2023/04/11 04:49:55;;;;;;;3.17;1.40;;;7.10;99.90;;;;;;5071080;28;20501;-74
2023/04/11 04:52:25;;;;;;;4.15;1.70;;;7.10;99.90;;;;;;5071347;28;20055;-74
2023/04/11 04:54:51;;;;;;;4.28;1.33;;;7.10;99.90;;;;;;5069723;28;20535;-73
2023/04/11 04:57:17;;;;;;;5.55;1.92;;;7.20;99.90;;;;;;5070185;28;20093;-74
2023/04/11 04:59:45;;;;;;;5.93;1.60;;;7.20;99.90;;;;;;5071292;28;20431;-73
2023/04/11 05:02:11;;;;;;;6.22;2.00;;;7.20;99.90;;;;;;5071038;28;20389;-73
2023/04/11 05:04:37;;;;;;;6.45;2.17;;;7.20;99.90;;;;;;5052708;28;20040;-73
2023/04/11 05:07:03;;;;;;;5.20;1.50;;;7.30;99.90;;;;;;5070541;28;20800;-73
2023/04/11 05:09:29;;;;;;;4.07;1.60;;;7.30;99.90;;;;;;5040911;28;20049;-75
2023/04/11 05:11:55;;;;;;;4.57;1.30;;;7.30;99.90;;;;;;5074022;28;20127;-75
2023/04/11 05:14:21;;;;;;;4.13;1.95;;;7.30;99.90;;;;;;5074792;28;20086;-74
2023/04/11 05:16:46;;;;;;;5.63;1.67;;;7.30;99.90;;;;;;5075137;28;20497;-74
2023/04/11 05:19:12;;;;;;;4.15;1.55;;;7.40;99.90;;;;;;5057246;28;20505;-75
2023/04/11 05:21:38;;;;;;;5.32;1.55;;;7.30;99.90;;;;;;5073989;28;20083;-75
2023/04/11 05:24:04;;;;;;;5.72;1.60;;;7.40;99.90;;;;;;5056873;28;20052;-74
2023/04/11 05:26:30;;;;;;;6.43;1.60;;;7.40;99.90;;;;;;5073855;28;20114;-74
2023/04/11 05:28:57;;;;;;;3.40;1.42;;;7.40;99.90;;;;;;5073332;28;20080;-74
2023/04/11 05:31:24;;;;;;;6.03;2.35;;;7.30;99.90;;;;;;5074764;28;20051;-75
2023/04/11 05:33:50;;;;;;;6.68;2.00;;;7.30;99.90;;;;;;5073559;28;20141;-75
2023/04/11 05:36:16;;;;;;;5.95;1.75;;;7.40;99.90;;;;;;5073619;28;20391;-74
2023/04/11 05:38:43;;;;;;;5.97;1.83;;;7.40;99.90;;;;;;5074506;28;20128;-74
2023/04/11 05:41:10;;;;;;;4.70;1.70;;;7.40;99.90;;;;;;5075250;28;20397;-74
2023/04/11 05:43:36;;;;;;;4.20;1.67;;;7.40;99.90;;;;;;5074796;28;20048;-74
2023/04/11 05:46:02;;;;;;;4.28;1.80;;;7.40;99.90;;;;;;5074213;28;20091;-74
2023/04/11 05:48:28;;;;;;;4.47;1.42;;;7.40;99.90;;;;;;5073172;28;20247;-75
2023/04/11 05:50:53;;;;;;;6.55;1.55;;;7.40;99.90;;;;;;5074606;28;20104;-74
2023/04/11 05:53:19;;;;;;;5.20;1.75;;;7.40;99.90;;;;;;5073335;28;20102;-74
2023/04/11 05:55:45;;;;;;;6.00;1.52;;;7.30;99.90;;;;;;5073183;28;20052;-74
2023/04/11 05:58:11;;;;;;;5.47;1.77;;;7.40;99.90;;;;;;5072771;28;20139;-75
2023/04/11 06:00:37;;;;;;;6.05;1.85;;;7.40;99.90;;;;;;5073057;28;20052;-75
2023/04/11 06:03:04;;;;;;;3.80;1.40;;;7.40;99.90;;;;;;5074124;28;20044;-74
2023/04/11 06:05:32;;;;;;;6.68;1.70;;;7.50;99.90;;;;;;5072959;28;20071;-74
2023/04/11 06:07:59;;;;;;;4.50;1.63;;;7.50;99.90;;;;;;5072909;28;20413;-73
2023/04/11 06:10:26;;;;;;;7.90;1.70;;;7.60;99.90;;;;;;5073083;28;20045;-74
2023/04/11 06:12:51;;;;;;;3.92;1.50;;;7.60;99.90;;;;;;5073698;28;20366;-77
2023/04/11 06:15:17;;;;;;;4.72;1.42;;;7.60;99.90;;;;;;5072621;28;20056;-74
2023/04/11 06:17:44;;;;;;;6.30;1.35;;;7.50;99.90;;;;;;5072753;28;20048;-74
2023/04/11 06:20:10;;;;;;;5.05;1.38;;;7.50;99.90;;;;;;5072746;28;20048;-73
2023/04/11 06:22:36;;;;;;;4.30;1.45;;;7.40;99.90;;;;;;5072603;28;20059;-74
2023/04/11 06:25:03;;;;;;;5.82;1.45;;;7.40;99.90;;;;;;5072426;28;20053;-75
2023/04/11 06:27:29;;;;;;;4.18;1.63;;;7.40;99.90;;;;;;5073796;28;20057;-74
2023/04/11 06:29:55;;;;;;;5.28;1.88;;;7.50;99.90;;;;;;5069907;28;20485;-71
2023/04/11 06:32:21;;;;;;;4.88;1.60;;;7.50;99.90;;;;;;5072161;28;20132;-71
2023/04/11 06:34:46;;;;;;;4.78;1.45;;;7.50;99.90;;;;;;5073546;28;20056;-71
2023/04/11 06:37:12;;;;;;;2.95;1.20;;;7.40;99.90;;;;;;5072356;28;20114;-71
2023/04/11 06:39:38;;;;;;;5.45;1.83;;;7.40;99.90;;;;;;5073267;28;20048;-70
2023/04/11 06:42:04;;;;;;;3.75;1.92;;;7.40;99.90;;;;;;5072024;28;20059;-70
2023/04/11 06:44:30;;;;;;;5.85;1.33;;;7.40;99.90;;;;;;5072833;28;20047;-71
2023/04/11 06:46:55;;;;;;;5.28;1.35;;;7.40;99.90;;;;;;5073374;28;20049;-71
2023/04/11 06:49:22;;;;;;;4.43;1.60;;;7.50;99.90;;;;;;5071548;28;20481;-70
2023/04/11 06:51:50;;;;;;;5.93;1.55;;;7.50;99.90;;;;;;5073276;28;20051;-71
2023/04/11 06:54:17;;;;;;;3.85;2.05;;;7.60;99.90;;;;;;5073079;28;20058;-71
2023/04/11 06:56:43;;;;;;;3.25;1.48;;;7.60;99.90;;;;;;5071980;28;20048;-71
2023/04/11 06:59:09;;;;;;;4.15;1.73;;;7.70;99.90;;;;;;5071901;28;20497;-71
2023/04/11 07:01:38;;;;;;;4.32;1.60;;;7.60;99.90;;;;;;5073085;28;20052;-71
2023/04/11 07:04:04;;;;;;;5.03;1.40;;;7.70;99.90;;;;;;5073095;28;20049;-78
2023/04/11 07:06:30;;;;;;;4.18;1.52;;;7.70;99.90;;;;;;5065486;28;20052;-73
2023/04/11 07:08:57;;;;;;;3.60;1.15;;;7.70;99.90;;;;;;5065963;28;20150;-72
2023/04/11 07:11:22;;;;;;;4.03;1.70;;;7.70;99.90;;;;;;5071184;28;20119;-71
2023/04/11 07:13:51;;;;;;;4.93;1.70;;;7.70;99.90;;;;;;5071302;28;20131;-72
2023/04/11 07:16:17;;;;;;;3.97;1.10;;;7.50;99.90;;;;;;5071233;28;20052;-72
2023/04/11 07:18:43;;;;;;;5.72;1.83;;;7.50;99.90;;;;;;5072270;28;20040;-72
2023/04/11 07:21:12;;;;;;;5.80;1.70;;;7.50;99.90;;;;;;5081835;28;20063;-72
2023/04/11 07:23:39;;;;;;;6.10;1.40;;;7.50;99.90;;;;;;5082978;28;20044;-72
2023/04/11 07:26:07;;;;;;;6.40;1.60;;;7.60;99.90;;;;;;5054517;28;20052;-74
2023/04/11 07:28:36;;;;;;;5.93;1.75;;;7.70;99.90;;;;;;5054215;28;20049;-73
2023/04/11 07:31:03;;;;;;;6.47;1.80;;;7.70;99.90;;;;;;5070130;28;20059;-73
2023/04/11 07:33:29;;;;;;;6.03;1.95;;;7.80;99.90;;;;;;5054404;28;20058;-74
2023/04/11 07:35:55;;;;;;;3.63;1.48;;;7.90;99.90;;;;;;5070690;28;20135;-72
2023/04/11 07:38:28;;;;;;;6.28;1.73;;;7.90;99.90;;;;;;5070846;28;20140;-73
2023/04/11 07:40:54;;;;;;;5.00;1.52;;;8.00;99.90;;;;;;5054228;28;20047;-73
2023/04/11 07:43:20;;;;;;;5.13;1.55;;;8.00;99.90;;;;;;5069757;28;20117;-73
2023/04/11 07:45:45;;;;;;;4.82;1.48;;;8.10;99.90;;;;;;5070714;28;20052;-72
2023/04/11 07:48:11;;;;;;;6.93;2.00;;;8.10;99.90;;;;;;5071743;28;20465;-74
2023/04/11 07:50:37;;;;;;;5.88;1.42;;;8.20;99.90;;;;;;5053645;28;20547;-74
2023/04/11 07:53:02;;;;;;;7.75;1.83;;;8.20;99.90;;;;;;5070399;28;20048;-74
2023/04/11 07:55:28;;;;;;;2.40;1.00;;;8.20;99.90;;;;;;5070519;28;20098;-74
2023/04/11 07:57:54;;;;;;;5.70;1.45;;;8.20;99.90;;;;;;5070438;28;20105;-72
2023/04/11 08:00:21;;;;;;;5.13;1.25;;;8.20;99.90;;;;;;5070289;28;20079;-73
2023/04/11 08:02:47;;;;;;;5.15;1.25;;;8.20;99.90;;;;;;5070345;28;20068;-74
2023/04/11 08:05:12;;;;;;;5.55;1.40;;;8.20;99.90;;;;;;5070094;28;20501;-73
2023/04/11 08:07:38;;;;;;;6.20;1.58;;;8.10;99.90;;;;;;5053705;28;20052;-74
2023/04/11 08:10:06;;;;;;;7.07;1.80;;;8.10;99.90;;;;;;5070375;28;20469;-74
2023/04/11 08:12:31;;;;;;;6.00;2.05;;;8.00;99.90;;;;;;5069675;28;20051;-78
2023/04/11 08:14:57;;;;;;;3.47;1.13;;;7.90;99.90;;;;;;5053352;28;20127;-76
2023/04/11 08:17:24;;;;;;;5.20;1.25;;;8.00;99.90;;;;;;5070116;28;20054;-84
2023/04/11 08:19:50;;;;;;;7.72;1.58;;;8.00;99.90;;;;;;5053480;28;20056;-73
2023/04/11 08:22:16;;;;;;;3.78;1.30;;;8.10;99.90;;;;;;5069919;28;20491;-73
2023/04/11 08:24:42;;;;;;;8.73;1.33;;;8.10;99.90;;;;;;5070994;28;20685;-73
2023/04/11 08:27:08;;;;;;;4.90;1.60;;;8.20;99.90;;;;;;5071244;28;20052;-72
2023/04/11 08:29:33;;;;;;;7.20;1.40;;;8.00;99.90;;;;;;5069324;28;20443;-74
2023/04/11 08:31:59;;;;;;;5.80;1.55;;;7.80;99.90;;;;;;5071068;28;20499;-73
2023/04/11 08:34:25;;;;;;;3.60;1.63;;;7.80;99.90;;;;;;5069611;28;20052;-75
2023/04/11 08:36:50;;;;;;;6.30;1.58;;;7.80;99.90;;;;;;5053405;28;20044;-73
2023/04/11 08:39:16;;;;;;;6.15;1.65;;;8.20;99.90;;;;;;5071163;28;20040;-72
2023/04/11 08:41:42;;;;;;;5.80;1.27;;;8.50;99.90;;;;;;5051924;28;20051;-72
2023/04/11 08:44:11;;;;;;;6.10;1.50;;;8.70;99.90;;;;;;5069288;28;20070;-73
2023/04/11 08:46:41;;;;;;;4.43;1.27;;;8.80;99.90;;;;;;5069469;28;20052;-73
2023/04/11 08:49:07;;;;;;;4.85;1.42;;;8.80;99.90;;;;;;5069340;28;20444;-73
2023/04/11 08:51:33;;;;;;;4.18;1.50;;;8.60;99.90;;;;;;5069819;28;20094;-74
2023/04/11 08:54:03;;;;;;;3.60;1.00;;;8.40;99.90;;;;;;5069520;28;20060;-72
2023/04/11 08:56:29;;;;;;;3.90;1.23;;;8.10;99.90;;;;;;5070624;28;20044;-73
2023/04/11 08:58:55;;;;;;;3.28;1.05;;;8.00;99.90;;;;;;5069689;28;20086;-72
2023/04/11 09:01:25;;;;;;;4.45;1.40;;;8.30;99.90;;;;;;5032838;28;20119;-72
2023/04/11 09:03:51;;;;;;;5.15;1.65;;;8.40;99.90;;;;;;5050579;28;20056;-72
2023/04/11 09:06:17;;;;;;;4.85;1.90;;;8.70;99.90;;;;;;5050508;28;20049;-73
2023/04/11 09:08:43;;;;;;;6.50;1.63;;;9.10;99.90;;;;;;5065908;28;20187;-72
2023/04/11 09:11:08;;;;;;;5.50;1.35;;;9.20;99.90;;;;;;5051295;28;20049;-72
2023/04/11 09:13:34;;;;;;;6.63;1.38;;;9.30;99.90;;;;;;5070272;28;20512;-71
2023/04/11 09:16:11;;;;;;;5.72;1.45;;;9.30;99.90;;;;;;5070649;28;20045;-72
2023/04/11 09:18:37;;;;;;;4.97;1.33;;;9.10;99.90;;;;;;5067774;28;20059;-73
2023/04/11 09:21:12;;;;;;;4.57;1.00;;;8.90;99.90;;;;;;5069710;28;20059;-73
2023/04/11 09:23:38;;;;;;;4.22;1.45;;;8.70;99.90;;;;;;5070054;28;20264;-72
2023/04/11 09:26:05;;;;;;;5.32;1.10;;;8.80;99.90;;;;;;5065974;28;20059;-72
2023/04/11 09:28:43;;;;;;;5.22;1.42;;;9.00;99.90;;;;;;5069092;28;20570;-74
2023/04/11 09:31:11;;;;;;;3.25;1.17;;;9.40;99.90;;;;;;5069497;28;20061;-72
2023/04/11 09:33:37;;;;;;;5.15;1.23;;;9.60;99.90;;;;;;5068855;28;20498;-72
2023/04/11 09:36:18;;;;;;;3.63;1.52;;;9.50;99.90;;;;;;5070203;28;20187;-72
2023/04/11 09:38:44;;;;;;;4.00;1.48;;;9.40;99.90;;;;;;5069218;28;20056;-72
2023/04/11 09:41:10;;;;;;;5.57;1.65;;;9.20;99.90;;;;;;5052423;28;20048;-72
2023/04/11 09:43:49;;;;;;;4.72;1.30;;;9.40;99.90;;;;;;5068777;28;20397;-73
2023/04/11 09:46:17;;;;;;;5.15;1.80;;;9.70;99.90;;;;;;5069240;28;20490;-73
2023/04/11 09:48:43;;;;;;;2.75;1.40;;;9.70;99.90;;;;;;5068201;28;20136;-72
2023/04/11 09:51:09;;;;;;;5.95;1.55;;;9.50;99.90;;;;;;5070786;28;20230;-72
2023/04/11 09:53:36;;;;;;;3.78;1.30;;;9.20;99.90;;;;;;5070775;28;20101;-72
2023/04/11 09:56:03;;;;;;;4.93;1.30;;;8.80;99.90;;;;;;5072745;28;20133;-73
2023/04/11 09:58:31;;;;;;;4.22;1.70;;;8.80;99.90;;;;;;5072698;28;20049;-73
2023/04/11 10:01:00;;;;;;;5.35;1.42;;;9.00;99.90;;;;;;5073674;28;20059;-72
2023/04/11 10:03:26;;;;;;;3.67;1.30;;;9.40;99.90;;;;;;5073708;28;20049;-73
2023/04/11 10:05:56;;;;;;;3.40;1.20;;;9.70;99.90;;;;;;5072865;28;20071;-72
2023/04/11 10:08:31;;;;;;;4.45;1.80;;;9.60;99.90;;;;;;5072501;28;20049;-72
2023/04/11 10:11:02;;;;;;;2.65;1.13;;;9.60;99.90;;;;;;5073536;28;20497;-73
2023/04/11 10:13:34;;;;;;;3.83;1.13;;;9.50;99.90;;;;;;5055378;28;20063;-72
2023/04/11 10:16:22;;;;;;;3.53;1.00;;;9.40;99.90;;;;;;5072326;28;20052;-73
2023/04/11 10:18:53;;;;;;;5.32;0.98;;;9.30;99.90;;;;;;5072223;28;20064;-72
2023/04/11 10:21:31;;;;;;;3.50;1.00;;;9.30;99.90;;;;;;5072443;28;20078;-73
2023/04/11 10:24:17;;;;;;;2.95;1.50;;;9.20;99.90;;;;;;5072539;28;20060;-73
2023/04/11 10:27:00;;;;;;;2.78;1.33;;;8.90;99.90;;;;;;5071986;28;20142;-72
2023/04/11 10:29:39;;;;;;;1.38;0.70;;;8.50;99.90;;;;;;5072753;28;20060;-72
2023/04/11 10:32:19;;;;;;;3.83;0.80;;;8.10;99.90;;;;;;5071565;28;20057;-73
2023/04/11 10:34:53;;;;;;;3.95;0.90;;;7.90;99.90;;;;;;5071710;28;20162;-73
2023/04/11 10:37:32;;;;;;;3.25;0.90;;;7.90;99.90;;;;;;5054898;28;20573;-70
2023/04/11 10:39:59;;;;;;;3.58;0.82;;;8.00;99.90;;;;;;5071824;28;20163;-71
2023/04/11 10:42:29;;;;;;;3.97;0.80;;;8.30;99.90;;;;;;5055335;28;20102;-71
2023/04/11 10:45:20;;;;;;;3.53;0.90;;;8.70;99.90;;;;;;5071603;28;20181;-71
2023/04/11 10:47:55;;;;;;;4.28;1.00;;;9.00;99.90;;;;;;5071483;28;20052;-71
2023/04/11 10:50:30;;;;;;;3.80;1.10;;;9.00;99.90;;;;;;5072954;28;20086;-72
2023/04/11 10:53:04;;;;;;;2.70;0.90;;;9.20;99.90;;;;;;5071858;28;20153;-71
2023/04/11 10:55:49;;;;;;;5.32;1.00;;;9.40;99.90;;;;;;5071458;28;20044;-71
2023/04/11 10:58:18;;;;;;;4.90;0.95;;;9.60;99.90;;;;;;5071660;28;20045;-71
2023/04/11 11:00:50;;;;;;;5.78;1.45;;;9.80;99.90;;;;;;5071309;28;20109;-71
2023/04/11 11:03:24;;;;;;;3.70;1.10;;;9.90;99.90;;;;;;5071399;28;20048;-72
2023/04/11 11:06:01;;;;;;;3.08;0.90;;;10.00;99.90;;;;;;5071710;28;20074;-72
2023/04/11 11:08:36;;;;;;;4.68;1.20;;;9.90;99.90;;;;;;5072327;28;20413;-71
2023/04/11 11:11:07;;;;;;;4.53;1.23;;;9.40;99.90;;;;;;5071045;28;20050;-70
2023/04/11 11:13:50;;;;;;;4.03;1.20;;;8.70;99.90;;;;;;5071998;28;20052;-71
2023/04/11 11:16:18;;;;;;;5.68;1.00;;;8.20;99.90;;;;;;5072235;28;20528;-70
2023/04/11 11:18:45;;;;;;;4.78;1.10;;;8.00;99.90;;;;;;5071135;28;20114;-70
2023/04/11 11:21:13;;;;;;;4.80;1.25;;;8.00;99.90;;;;;;5072559;28;20044;-70
2023/04/11 11:23:51;;;;;;;4.03;1.45;;;8.50;99.90;;;;;;5070486;28;20044;-71
2023/04/11 11:26:16;;;;;;;4.60;1.27;;;9.20;99.90;;;;;;5071245;28;20177;-69
2023/04/11 11:28:49;;;;;;;3.65;1.00;;;9.60;99.90;;;;;;5054075;28;20074;-71
2023/04/11 11:31:15;;;;;;;5.57;1.42;;;9.80;99.90;;;;;;5054225;28;20048;-72
2023/04/11 11:33:41;;;;;;;4.05;1.30;;;9.90;99.90;;;;;;5070838;28;20048;-69
2023/04/11 11:36:08;;;;;;;3.63;0.90;;;9.80;99.90;;;;;;5054025;28;20393;-69
2023/04/11 11:38:34;;;;;;;5.07;1.13;;;9.90;99.90;;;;;;5071281;28;20044;-69
2023/04/11 11:41:01;;;;;;;2.92;1.00;;;10.00;99.90;;;;;;5070774;28;20090;-70
2023/04/11 11:43:27;;;;;;;4.03;0.88;;;10.00;99.90;;;;;;5070192;28;20151;-71
2023/04/11 11:46:13;;;;;;;3.30;1.10;;;9.90;99.90;;;;;;5071608;28;20049;-72
2023/04/11 11:48:55;;;;;;;5.07;0.98;;;9.90;99.90;;;;;;5071787;28;20121;-70
2023/04/11 11:51:21;;;;;;;3.17;1.38;;;9.80;99.90;;;;;;5071893;28;20113;-71
2023/04/11 11:54:07;;;;;;;3.35;1.33;;;9.90;99.90;;;;;;5069906;28;20497;-71
2023/04/11 11:56:33;;;;;;;2.15;0.90;;;10.00;99.90;;;;;;5053772;28;20040;-72
2023/04/11 11:59:00;;;;;;;4.30;1.23;;;9.90;99.90;;;;;;5054191;28;20095;-72
2023/04/11 12:01:25;;;;;;;3.42;0.90;;;10.30;99.90;;;;;;5069232;28;20083;-71
2023/04/11 12:03:52;;;;;;;2.38;0.88;;;10.50;99.90;;;;;;5054041;28;20095;-72
2023/04/11 12:06:19;;;;;;;4.38;1.13;;;10.50;99.90;;;;;;5071585;28;20048;-73
2023/04/11 12:08:52;;;;;;;2.30;0.75;;;10.30;99.90;;;;;;5052886;28;20407;-72
2023/04/11 12:11:18;;;;;;;4.45;1.20;;;10.30;99.90;;;;;;5070222;28;20041;-71
2023/04/11 12:13:44;;;;;;;4.45;1.08;;;10.90;99.90;;;;;;5070893;28;20048;-71
2023/04/11 12:16:12;;;;;;;5.68;1.20;;;11.50;99.90;;;;;;5069620;28;20057;-71
2023/04/11 12:18:41;;;;;;;7.22;1.40;;;11.80;99.90;;;;;;5070116;28;20064;-71
2023/04/11 12:21:06;;;;;;;3.80;1.02;;;11.80;99.90;;;;;;5071349;28;20044;-71
2023/04/11 12:23:32;;;;;;;2.88;1.00;;;12.10;99.90;;;;;;5070825;28;20396;-70
2023/04/11 12:25:58;;;;;;;2.65;0.80;;;11.90;99.90;;;;;;5069964;28;20548;-72
2023/04/11 12:28:23;;;;;;;4.93;1.00;;;11.70;99.90;;;;;;5069821;28;20053;-73
2023/04/11 12:30:49;;;;;;;3.30;1.05;;;12.20;99.90;;;;;;5068653;28;20052;-71
2023/04/11 12:33:15;;;;;;;3.47;1.23;;;12.50;99.90;;;;;;5071092;28;20071;-70
2023/04/11 12:35:41;;;;;;;4.78;1.35;;;12.50;99.90;;;;;;5070659;28;20101;-70
2023/04/11 12:38:06;;;;;;;4.35;1.25;;;12.20;99.90;;;;;;5052757;28;20049;-70
2023/04/11 12:40:32;;;;;;;2.20;1.00;;;11.90;99.90;;;;;;5052875;28;20469;-71
2023/04/11 12:42:58;;;;;;;3.33;0.90;;;11.60;99.90;;;;;;5069909;28;20094;-70
2023/04/11 12:45:25;;;;;;;4.72;1.17;;;11.60;99.90;;;;;;5069656;28;20040;-71
2023/04/11 12:47:50;;;;;;;4.78;1.35;;;12.20;99.90;;;;;;5070686;28;20051;-71
2023/04/11 12:50:16;;;;;;;3.60;1.13;;;12.10;99.90;;;;;;5070647;28;20048;-72
2023/04/11 12:52:42;;;;;;;2.53;0.80;;;11.70;99.90;;;;;;5068960;28;20052;-71
2023/04/11 12:55:08;;;;;;;3.83;0.90;;;11.30;99.90;;;;;;5069471;28;20052;-72
2023/04/11 12:57:35;;;;;;;4.35;0.90;;;11.20;99.90;;;;;;5069834;28;20048;-71